Time;durP1;ratioP1;P1;durP2;ratioP2;P2;SDS_P1;SDS_P2;PMS_P1;PMS_P2;Temp;Humidity;BMP_temperature;BMP_pressure;BME280_temperature;BME280_humidity;BME280_pressure;Samples;Min_cycle;Max_cycle;Signal;HPM_P1;HPM_P2
2024/03/21 00:00:36;;;;;;;26.55;18.73;;;;;;;9.95;100.00;102084.38;5081111;28;20068;-78
2024/03/21 00:03:01;;;;;;;31.38;20.15;;;;;;;9.94;100.00;102080.91;5085895;28;20044;-78
2024/03/21 00:05:28;;;;;;;28.05;19.25;;;;;;;9.96;100.00;102083.50;5083244;28;20401;-78
2024/03/21 00:07:53;;;;;;;26.83;18.50;;;;;;;9.96;100.00;102084.34;5084643;28;20041;-78
2024/03/21 00:10:19;;;;;;;29.15;17.77;;;;;;;9.94;100.00;102080.03;5084320;28;20037;-78
2024/03/21 00:12:49;;;;;;;27.05;18.23;;;;;;;9.94;100.00;102080.03;5080777;28;20224;-78
2024/03/21 00:15:15;;;;;;;25.17;18.73;;;;;;;9.91;100.00;102088.78;5064717;28;20035;-78
2024/03/21 00:17:41;;;;;;;24.83;18.15;;;;;;;9.90;100.00;102078.38;5089046;28;20379;-78
2024/03/21 00:20:11;;;;;;;29.08;18.48;;;;;;;9.91;100.00;102072.25;5092214;28;20077;-78
2024/03/21 00:22:37;;;;;;;24.10;16.30;;;;;;;9.90;100.00;102073.16;5091500;28;20036;-78
2024/03/21 00:25:03;;;;;;;24.65;17.38;;;;;;;9.88;100.00;102067.09;5083309;28;20096;-78
2024/03/21 00:27:29;;;;;;;25.20;17.77;;;;;;;9.84;100.00;102068.91;5081821;28;20054;-78
2024/03/21 00:29:55;;;;;;;26.20;18.58;;;;;;;9.80;100.00;102072.44;5082632;28;20248;-78
2024/03/21 00:32:20;;;;;;;24.65;17.73;;;;;;;9.79;100.00;102082.03;5081629;28;20064;-78
2024/03/21 00:34:45;;;;;;;25.95;17.50;;;;;;;9.80;100.00;102082.91;5089735;28;20272;-78
2024/03/21 00:37:11;;;;;;;27.63;18.48;;;;;;;9.80;100.00;102104.72;5088422;28;20019;-78
2024/03/21 00:39:38;;;;;;;23.35;16.88;;;;;;;9.82;100.00;102112.50;5091086;28;20062;-78
2024/03/21 00:42:04;;;;;;;24.83;16.63;;;;;;;9.86;100.00;102119.44;5086942;28;20101;-78
2024/03/21 00:44:30;;;;;;;25.67;16.60;;;;;;;9.90;100.00;102120.25;5087217;28;20335;-78
2024/03/21 00:46:55;;;;;;;24.90;17.25;;;;;;;9.87;100.00;102108.06;5087915;28;20073;-78
2024/03/21 00:49:21;;;;;;;28.35;17.40;;;;;;;9.82;100.00;102104.66;5088254;28;20112;-78
2024/03/21 00:51:46;;;;;;;27.83;17.20;;;;;;;9.83;100.00;102100.31;5085610;28;20236;-78
2024/03/21 00:54:11;;;;;;;26.23;16.58;;;;;;;9.78;100.00;102097.75;5089955;28;20385;-78
2024/03/21 00:56:38;;;;;;;23.67;14.35;;;;;;;9.79;100.00;102100.34;5085078;28;20027;-78
2024/03/21 00:59:04;;;;;;;26.38;15.50;;;;;;;9.80;100.00;102094.25;5088492;28;20353;-78
2024/03/21 01:01:30;;;;;;;20.13;13.75;;;;;;;9.85;100.00;102095.91;5092036;28;20126;-78
2024/03/21 01:03:55;;;;;;;21.95;14.05;;;;;;;9.89;100.00;102097.56;5093975;28;20452;-78
2024/03/21 01:06:21;;;;;;;20.00;12.85;;;;;;;9.91;100.00;102099.25;5090592;28;20121;-78
2024/03/21 01:08:46;;;;;;;24.08;13.90;;;;;;;9.92;100.00;102116.69;5089165;28;20028;-78
2024/03/21 01:11:12;;;;;;;24.08;14.68;;;;;;;9.86;100.00;102114.22;5091766;28;20038;-78
2024/03/21 01:13:37;;;;;;;26.77;15.20;;;;;;;9.83;100.00;102109.00;5097479;28;20047;-78
2024/03/21 01:16:07;;;;;;;30.50;15.98;;;;;;;9.84;100.00;102120.34;5098058;28;20056;-78
2024/03/21 01:18:35;;;;;;;26.15;16.10;;;;;;;9.80;100.00;102120.41;5098849;28;20043;-78
2024/03/21 01:21:05;;;;;;;29.65;16.45;;;;;;;9.82;100.00;102120.34;5076327;28;20027;-78
2024/03/21 01:23:32;;;;;;;29.88;17.10;;;;;;;9.84;100.00;102120.34;5098425;28;20027;-78
2024/03/21 01:25:57;;;;;;;22.55;15.48;;;;;;;9.89;100.00;102118.50;5096115;28;20028;-78
2024/03/21 01:28:23;;;;;;;29.98;17.55;;;;;;;9.87;100.00;102113.28;5098141;28;20042;-78
2024/03/21 01:30:49;;;;;;;33.72;19.20;;;;;;;9.88;100.00;102116.81;5096544;28;20335;-79
2024/03/21 01:33:14;;;;;;;42.20;18.45;;;;;;;9.86;100.00;102106.34;5098018;28;20297;-78
2024/03/21 01:35:39;;;;;;;33.40;19.23;;;;;;;9.86;100.00;102111.59;5098826;28;20032;-78
2024/03/21 01:38:05;;;;;;;31.55;18.40;;;;;;;9.87;100.00;102113.28;5099590;28;20392;-78
2024/03/21 01:40:31;;;;;;;39.13;19.77;;;;;;;9.83;100.00;102095.94;5098188;28;21042;-78
2024/03/21 01:42:57;;;;;;;37.78;19.80;;;;;;;9.86;100.00;102102.84;5097237;28;20351;-78
2024/03/21 01:45:22;;;;;;;31.63;18.20;;;;;;;9.86;100.00;102113.31;5094518;28;20094;-78
2024/03/21 01:47:47;;;;;;;36.55;17.63;;;;;;;9.89;100.00;102106.28;5097066;28;20241;-78
2024/03/21 01:50:13;;;;;;;30.50;16.67;;;;;;;9.92;100.00;102094.91;5093209;28;20060;-78
2024/03/21 01:52:41;;;;;;;38.60;18.63;;;;;;;9.92;100.00;102100.16;5097867;28;20024;-78
2024/03/21 01:55:08;;;;;;;28.45;16.67;;;;;;;9.91;100.00;102101.88;5095338;28;20089;-77
2024/03/21 01:57:35;;;;;;;30.20;17.83;;;;;;;9.92;100.00;102110.63;5092796;28;20273;-77
2024/03/21 02:00:03;;;;;;;27.55;17.13;;;;;;;9.91;100.00;102112.34;5090530;28;20101;-77
2024/03/21 02:05:24;;;;;;;31.80;16.88;;;;;;;9.90;100.00;102115.03;4852327;26;20053;-77
2024/03/21 02:07:51;;;;;;;24.67;14.70;;;;;;;9.76;100.00;102108.25;5052859;28;20267;-77
2024/03/21 02:10:17;;;;;;;25.65;14.18;;;;;;;9.73;100.00;102104.81;5051874;28;20250;-77
2024/03/21 02:12:46;;;;;;;24.77;14.20;;;;;;;9.75;100.00;102111.78;5044063;28;20057;-77
2024/03/21 02:15:12;;;;;;;25.75;14.00;;;;;;;9.73;100.00;102107.44;5053244;28;20014;-77
2024/03/21 02:17:39;;;;;;;22.92;12.65;;;;;;;9.73;100.00;102110.94;5042496;28;20204;-77
2024/03/21 02:20:06;;;;;;;20.02;12.60;;;;;;;9.74;100.00;102119.63;5044771;28;20033;-77
2024/03/21 02:22:37;;;;;;;21.98;12.73;;;;;;;9.79;100.00;102123.06;5038343;28;20208;-77
2024/03/21 02:25:10;;;;;;;21.50;11.25;;;;;;;9.79;100.00;102120.44;5044090;28;20336;-77
2024/03/21 02:27:36;;;;;;;16.40;10.27;;;;;;;9.78;100.00;102132.63;5046854;28;20028;-78
2024/03/21 02:30:02;;;;;;;15.27;9.15;;;;;;;9.69;100.00;102140.63;5053169;28;20040;-77
2024/03/21 02:32:28;;;;;;;14.13;8.38;;;;;;;9.61;100.00;102145.13;5052961;28;20025;-77
2024/03/21 02:34:56;;;;;;;8.20;7.20;;;;;;;9.63;100.00;102140.75;5062774;28;20315;-77
2024/03/21 02:37:22;;;;;;;10.55;7.50;;;;;;;9.67;100.00;102145.03;5052682;28;20032;-77
2024/03/21 02:39:51;;;;;;;17.15;8.00;;;;;;;9.61;100.00;102147.75;5038423;28;20096;-77
2024/03/21 02:42:21;;;;;;;9.57;6.93;;;;;;;9.54;100.00;102143.50;5043266;28;20075;-77
2024/03/21 02:44:47;;;;;;;12.52;7.25;;;;;;;9.44;100.00;102124.50;5039906;28;20637;-77
2024/03/21 02:47:14;;;;;;;11.32;7.82;;;;;;;9.48;100.00;102133.13;5052475;28;20086;-77
2024/03/21 02:49:39;;;;;;;9.55;7.32;;;;;;;9.49;100.00;102135.72;5054289;28;20039;-77
2024/03/21 02:52:05;;;;;;;9.25;8.32;;;;;;;9.51;100.00;102133.09;5047004;28;20037;-77
2024/03/21 02:54:31;;;;;;;10.55;7.78;;;;;;;9.53;100.00;102128.69;5042686;28;20320;-77
2024/03/21 02:57:02;;;;;;;10.48;8.82;;;;;;;9.48;100.00;102147.09;5045615;28;20103;-77
2024/03/21 02:59:27;;;;;;;14.82;8.30;;;;;;;9.35;100.00;102151.63;5042081;28;20205;-78
2024/03/21 03:01:53;;;;;;;14.93;8.85;;;;;;;9.29;100.00;102154.31;5054188;28;20087;-77
2024/03/21 03:04:18;;;;;;;9.50;8.20;;;;;;;9.34;100.00;102167.34;5044385;28;20307;-78
2024/03/21 03:06:43;;;;;;;8.75;7.22;;;;;;;9.29;100.00;102174.38;5037380;28;20239;-77
2024/03/21 03:09:09;;;;;;;10.68;7.13;;;;;;;9.16;100.00;102179.75;5046598;28;20043;-77
2024/03/21 03:11:37;;;;;;;8.23;5.93;;;;;;;9.13;100.00;102181.56;5043907;28;20037;-77
2024/03/21 03:14:06;;;;;;;5.88;5.10;;;;;;;9.07;100.00;102195.56;5045216;28;20134;-77
2024/03/21 03:16:31;;;;;;;4.95;4.55;;;;;;;8.97;100.00;102204.41;5036412;28;20354;-77
2024/03/21 03:18:57;;;;;;;5.45;4.20;;;;;;;8.93;100.00;102198.38;5037625;28;20125;-77
2024/03/21 03:21:22;;;;;;;8.10;4.30;;;;;;;8.95;100.00;102207.06;5041021;28;20227;-76
2024/03/21 03:23:48;;;;;;;9.57;5.25;;;;;;;8.93;100.00;102203.59;5037074;28;20365;-77
2024/03/21 03:26:13;;;;;;;8.63;5.15;;;;;;;8.90;100.00;102208.84;5045319;28;20075;-77
2024/03/21 03:28:38;;;;;;;6.40;5.32;;;;;;;8.90;100.00;102214.06;5037517;28;20028;-77
2024/03/21 03:31:04;;;;;;;7.70;5.05;;;;;;;8.87;100.00;102218.47;5061936;28;20021;-77
2024/03/21 03:36:13;;;;;;;8.88;5.43;;;;;;;8.80;100.00;102239.44;5043367;28;20036;-77
2024/03/21 03:38:38;;;;;;;7.20;5.65;;;;;;;8.71;100.00;102234.28;5051901;28;20036;-77
2024/03/21 03:41:03;;;;;;;7.88;5.78;;;;;;;8.71;100.00;102233.44;5041787;28;20113;-77
2024/03/21 03:43:29;;;;;;;12.43;6.28;;;;;;;8.57;100.00;102233.59;5038812;28;20345;-77
2024/03/21 03:45:54;;;;;;;11.32;6.28;;;;;;;8.50;100.00;102226.69;5036765;28;20247;-77
2024/03/21 03:48:19;;;;;;;10.07;6.20;;;;;;;8.50;100.00;102227.56;5040099;28;20335;-77
2024/03/21 03:50:45;;;;;;;10.07;6.07;;;;;;;8.45;100.00;102230.19;5053422;28;20044;-77
2024/03/21 03:53:10;;;;;;;11.52;6.38;;;;;;;8.50;100.00;102230.16;5044592;28;20044;-77
2024/03/21 03:55:35;;;;;;;9.55;6.68;;;;;;;8.50;100.00;102232.78;5039362;28;20053;-77
2024/03/21 03:58:01;;;;;;;11.90;7.10;;;;;;;8.43;100.00;102229.34;5040635;28;20037;-77
2024/03/21 04:00:26;;;;;;;16.88;7.63;;;;;;;8.42;100.00;102229.38;5037492;28;20029;-77
2024/03/21 04:02:52;;;;;;;15.85;8.25;;;;;;;8.50;100.00;102240.63;5045465;28;20036;-77
2024/03/21 04:05:17;;;;;;;10.48;7.57;;;;;;;8.55;100.00;102253.59;5051054;28;20079;-77
2024/03/21 04:07:45;;;;;;;14.15;7.63;;;;;;;8.58;100.00;102261.41;5036939;28;20315;-77
2024/03/21 04:10:10;;;;;;;15.00;8.25;;;;;;;8.57;100.00;102267.53;5049432;28;20033;-77
2024/03/21 04:12:36;;;;;;;11.57;7.80;;;;;;;8.64;100.00;102267.47;5044384;28;20037;-77
2024/03/21 04:15:01;;;;;;;12.38;9.05;;;;;;;8.64;100.00;102277.03;5046994;28;20040;-77
2024/03/21 04:17:26;;;;;;;17.63;10.88;;;;;;;8.52;100.00;102278.00;5063678;28;20333;-77
2024/03/21 04:19:52;;;;;;;15.45;10.05;;;;;;;8.51;100.00;102284.09;5036721;28;20362;-77
2024/03/21 04:22:17;;;;;;;17.05;8.50;;;;;;;8.36;100.00;102285.06;5037858;28;20246;-77
2024/03/21 04:24:43;;;;;;;10.88;9.07;;;;;;;8.38;100.00;102283.31;5055501;28;20025;-77
2024/03/21 04:27:09;;;;;;;10.52;7.65;;;;;;;8.43;100.00;102292.00;5049673;28;20033;-77
2024/03/21 04:29:34;;;;;;;12.15;8.18;;;;;;;8.33;100.00;102295.56;5035728;28;20239;-76
2024/03/21 04:32:00;;;;;;;10.90;7.25;;;;;;;8.40;100.00;102294.63;5039894;28;20059;-77
2024/03/21 04:34:25;;;;;;;11.35;7.13;;;;;;;8.40;100.00;102301.59;5038288;28;20033;-77
2024/03/21 04:36:51;;;;;;;12.07;6.90;;;;;;;8.27;100.00;102293.84;5036682;28;20068;-77
2024/03/21 04:39:16;;;;;;;12.80;6.20;;;;;;;8.29;100.00;102300.81;5065536;28;20029;-77
2024/03/21 04:41:42;;;;;;;7.65;6.15;;;;;;;8.29;100.00;102306.03;5044691;28;20048;-77
2024/03/21 04:44:07;;;;;;;9.55;6.32;;;;;;;8.27;100.00;102304.28;5042887;28;20033;-77
2024/03/21 04:46:32;;;;;;;18.33;6.85;;;;;;;8.27;100.00;102303.41;5044516;28;20220;-77
2024/03/21 04:48:58;;;;;;;8.13;6.43;;;;;;;8.31;100.00;102306.88;5044635;28;20045;-77
2024/03/21 04:51:23;;;;;;;8.75;6.30;;;;;;;8.34;100.00;102304.25;5040080;28;20040;-77
2024/03/21 04:53:48;;;;;;;14.68;7.68;;;;;;;8.38;100.00;102319.88;5041736;28;20231;-77
2024/03/21 04:56:14;;;;;;;6.85;5.88;;;;;;;8.38;100.00;102321.63;5048391;28;20455;-77
2024/03/21 04:58:39;;;;;;;8.73;6.43;;;;;;;8.29;100.00;102317.31;5044243;28;20057;-77
2024/03/21 05:01:07;;;;;;;9.60;5.90;;;;;;;8.31;100.00;102318.19;5055236;28;20034;-77
2024/03/21 05:03:33;;;;;;;6.80;5.43;;;;;;;8.32;100.00;102337.34;5053460;28;20223;-77
2024/03/21 05:05:59;;;;;;;10.18;5.50;;;;;;;8.31;100.00;102326.00;5041934;28;20034;-77
2024/03/21 05:08:25;;;;;;;7.07;4.72;;;;;;;8.37;100.00;102328.59;5043397;28;20036;-76
2024/03/21 05:10:50;;;;;;;9.15;5.20;;;;;;;8.36;100.00;102333.81;5061109;28;20029;-76
2024/03/21 05:13:16;;;;;;;6.57;4.80;;;;;;;8.36;100.00;102329.44;5039896;28;20033;-77
2024/03/21 05:15:50;;;;;;;12.65;5.50;;;;;;;8.33;100.00;102339.94;5048763;28;20104;-76
2024/03/21 05:18:16;;;;;;;7.20;4.90;;;;;;;8.37;100.00;102338.19;5039266;28;20041;-76
2024/03/21 05:20:42;;;;;;;7.85;4.53;;;;;;;8.37;100.00;102348.63;5046126;28;20358;-77
2024/03/21 05:23:07;;;;;;;6.93;4.88;;;;;;;8.36;100.00;102345.13;5040095;28;20109;-77
2024/03/21 05:25:37;;;;;;;8.32;4.00;;;;;;;8.37;100.00;102352.09;5051623;28;20041;-76
2024/03/21 05:28:03;;;;;;;4.88;2.97;;;;;;;8.32;100.00;102346.03;5050117;28;20048;-78
2024/03/21 05:30:29;;;;;;;6.68;2.33;;;;;;;8.25;100.00;102352.16;5048871;28;20262;-78
2024/03/21 05:32:56;;;;;;;6.55;1.80;;;;;;;8.25;100.00;102355.63;5044911;28;20439;-78
2024/03/21 05:35:21;;;;;;;2.58;1.20;;;;;;;8.13;100.00;102362.69;5055147;28;20038;-78
2024/03/21 05:37:47;;;;;;;3.05;0.90;;;;;;;8.13;100.00;102370.50;5039900;28;20041;-78
2024/03/21 05:40:12;;;;;;;7.53;1.40;;;;;;;8.04;100.00;102377.53;5055592;28;20056;-78
2024/03/21 05:42:38;;;;;;;3.10;0.88;;;;;;;8.02;100.00;102374.06;5047245;28;20045;-78
2024/03/21 05:45:04;;;;;;;10.05;1.25;;;;;;;8.05;100.00;102378.38;5050705;28;20030;-78
2024/03/21 05:47:30;;;;;;;3.22;0.95;;;;;;;8.16;100.00;102380.94;5044050;28;20255;-77
2024/03/21 05:49:55;;;;;;;3.08;1.00;;;;;;;8.14;100.00;102380.09;5039839;28;20037;-78
2024/03/21 05:52:20;;;;;;;8.32;1.30;;;;;;;8.06;100.00;102382.75;5054545;28;20041;-77
2024/03/21 05:54:50;;;;;;;5.32;1.73;;;;;;;8.01;100.00;102384.50;5059622;28;20013;-78
2024/03/21 05:57:15;;;;;;;9.05;1.65;;;;;;;8.01;100.00;102384.50;5053478;28;20044;-77
2024/03/21 05:59:41;;;;;;;8.38;1.67;;;;;;;7.94;100.00;102385.41;5042933;28;20343;-78
2024/03/21 06:02:08;;;;;;;11.55;1.95;;;;;;;7.84;100.00;102398.50;5050373;28;20041;-78
2024/03/21 06:04:33;;;;;;;12.32;1.98;;;;;;;7.96;100.00;102394.94;5037960;28;20069;-78
2024/03/21 06:06:59;;;;;;;10.40;2.25;;;;;;;7.91;100.00;102394.09;5047255;28;20033;-78
2024/03/21 06:09:25;;;;;;;10.10;2.63;;;;;;;7.90;100.00;102397.59;5038016;28;20060;-78
2024/03/21 06:11:50;;;;;;;8.75;2.10;;;;;;;7.88;100.00;102405.44;5051552;28;20028;-78
2024/03/21 06:14:16;;;;;;;7.38;2.17;;;;;;;7.85;100.00;102417.63;5054060;28;20025;-77
2024/03/21 06:16:41;;;;;;;6.25;1.35;;;;;;;7.93;100.00;102421.06;5051032;28;20040;-78
2024/03/21 06:19:06;;;;;;;2.33;0.88;;;;;;;7.90;100.00;102418.47;5057343;28;20025;-77
2024/03/21 06:21:32;;;;;;;5.00;0.90;;;;;;;7.88;100.00;102421.06;5047334;28;20213;-77
2024/03/21 06:23:57;;;;;;;8.77;1.30;;;;;;;7.81;100.00;102421.97;5054808;28;20040;-78
2024/03/21 06:26:23;;;;;;;3.67;0.95;;;;;;;7.78;100.00;102416.75;5042593;28;20027;-78
2024/03/21 06:28:48;;;;;;;1.80;0.63;;;;;;;7.83;100.00;102419.38;5041292;28;20041;-77
2024/03/21 06:31:13;;;;;;;4.18;1.13;;;;;;;7.73;100.00;102436.81;5038161;28;20029;-77
2024/03/21 06:33:38;;;;;;;7.07;1.30;;;;;;;7.70;100.00;102423.75;5056470;28;20425;-77
2024/03/21 06:36:05;;;;;;;4.90;1.13;;;;;;;7.63;100.00;102425.50;5041111;28;20594;-77
2024/03/21 06:38:30;;;;;;;3.40;1.20;;;;;;;7.71;100.00;102424.63;5048620;28;20040;-78
2024/03/21 06:40:56;;;;;;;4.63;1.30;;;;;;;7.71;100.00;102425.47;5050742;28;20531;-77
2024/03/21 06:43:21;;;;;;;6.15;1.38;;;;;;;7.69;100.00;102428.13;5043596;28;20079;-78
2024/03/21 06:45:56;;;;;;;9.07;1.40;;;;;;;7.79;100.00;102441.13;5048419;28;20033;-78
2024/03/21 06:48:23;;;;;;;5.07;1.40;;;;;;;7.78;100.00;102444.59;5046985;28;20401;-78
2024/03/21 06:50:48;;;;;;;4.78;2.17;;;;;;;7.74;100.00;102441.13;5046604;28;20123;-78
2024/03/21 06:53:14;;;;;;;3.60;1.50;;;;;;;7.78;100.00;102455.88;5042835;28;20112;-78
2024/03/21 06:55:39;;;;;;;6.00;1.30;;;;;;;7.78;100.00;102452.41;5041253;28;20083;-78
2024/03/21 06:58:04;;;;;;;4.35;1.40;;;;;;;7.80;100.00;102458.50;5044845;28;20039;-78
2024/03/21 07:00:30;;;;;;;1.85;1.08;;;;;;;7.86;100.00;102453.28;5047037;28;20397;-77
2024/03/21 07:02:55;;;;;;;4.32;1.38;;;;;;;7.86;100.00;102461.97;5056866;28;20374;-78
2024/03/21 07:05:23;;;;;;;1.63;1.00;;;;;;;7.83;100.00;102461.09;5045086;28;20411;-78
2024/03/21 07:07:49;;;;;;;2.85;1.10;;;;;;;7.88;100.00;102473.25;5044558;28;20051;-78
2024/03/21 07:10:14;;;;;;;2.83;1.27;;;;;;;7.82;100.00;102482.81;5039666;28;20037;-78
2024/03/21 07:12:40;;;;;;;2.05;1.02;;;;;;;7.80;100.00;102487.19;5040866;28;20059;-78
2024/03/21 07:15:06;;;;;;;2.33;1.05;;;;;;;7.84;100.00;102492.41;5044586;28;20060;-78
2024/03/21 07:17:33;;;;;;;5.75;1.25;;;;;;;7.83;100.00;102500.22;5054946;28;20047;-78
2024/03/21 07:19:58;;;;;;;10.63;1.75;;;;;;;7.81;100.00;102509.78;5050981;28;20263;-77
2024/03/21 07:22:24;;;;;;;7.13;1.52;;;;;;;7.76;100.00;102517.63;5055112;28;20378;-77
2024/03/21 07:24:50;;;;;;;6.00;1.10;;;;;;;7.82;100.00;102527.16;5049393;28;20041;-78
2024/03/21 07:27:15;;;;;;;3.85;1.10;;;;;;;7.81;100.00;102525.44;5035985;28;20256;-78
2024/03/21 07:29:41;;;;;;;6.43;1.30;;;;;;;7.79;100.00;102525.44;5036715;28;20033;-78
2024/03/21 07:32:07;;;;;;;3.03;1.05;;;;;;;7.81;100.00;102518.47;5055168;28;20369;-78
2024/03/21 07:34:33;;;;;;;8.45;1.23;;;;;;;7.83;100.00;102528.91;5044623;28;20057;-78
2024/03/21 07:36:59;;;;;;;8.38;1.65;;;;;;;7.77;100.00;102521.97;5044367;28;20048;-78
2024/03/21 07:39:25;;;;;;;4.40;1.70;;;;;;;7.79;100.00;102522.84;5043259;28;20040;-78
2024/03/21 07:41:50;;;;;;;4.82;1.40;;;;;;;7.79;100.00;102528.06;5042403;28;20104;-78
2024/03/21 07:44:16;;;;;;;5.25;1.10;;;;;;;7.85;100.00;102532.38;5036718;28;20022;-78
2024/03/21 07:46:41;;;;;;;4.25;1.02;;;;;;;7.87;100.00;102521.06;5050474;28;20037;-78
2024/03/21 07:49:08;;;;;;;3.50;1.30;;;;;;;7.90;100.00;102533.25;5056885;28;20049;-78
2024/03/21 07:51:37;;;;;;;4.68;1.05;;;;;;;7.89;100.00;102531.50;5046671;28;20311;-78
2024/03/21 07:54:03;;;;;;;7.93;1.33;;;;;;;7.90;100.00;102522.81;5040037;28;20354;-78
2024/03/21 07:56:29;;;;;;;2.85;1.35;;;;;;;7.94;100.00;102518.47;5047002;28;20041;-77
2024/03/21 07:58:54;;;;;;;6.88;1.10;;;;;;;7.96;100.00;102528.00;5050065;28;20309;-78
2024/03/21 08:01:22;;;;;;;3.08;1.05;;;;;;;8.00;100.00;102521.88;5038211;28;20041;-78
2024/03/21 08:03:47;;;;;;;1.33;1.00;;;;;;;8.06;100.00;102524.50;5037329;28;20103;-78
2024/03/21 08:06:13;;;;;;;4.68;1.00;;;;;;;7.91;100.00;102529.75;5044107;28;20064;-78
2024/03/21 08:08:38;;;;;;;1.77;0.70;;;;;;;7.97;100.00;102529.75;5040764;28;20033;-78
2024/03/21 08:11:04;;;;;;;6.00;1.00;;;;;;;8.01;100.00;102533.22;5038120;28;20037;-78
2024/03/21 08:13:29;;;;;;;6.07;1.30;;;;;;;7.98;100.00;102533.22;5042672;28;20039;-78
2024/03/21 08:15:56;;;;;;;5.68;0.95;;;;;;;8.05;100.00;102542.78;5046228;28;20252;-78
2024/03/21 08:18:22;;;;;;;7.05;1.27;;;;;;;8.03;100.00;102537.56;5041081;28;20040;-78
2024/03/21 08:20:47;;;;;;;3.85;0.80;;;;;;;8.10;100.00;102548.00;5045877;28;20037;-78
2024/03/21 08:23:14;;;;;;;3.10;1.08;;;;;;;8.13;100.00;102553.19;5049342;28;20037;-77
2024/03/21 08:25:39;;;;;;;6.93;1.55;;;;;;;8.14;100.00;102549.72;5048736;28;20247;-78
2024/03/21 08:28:04;;;;;;;5.40;1.20;;;;;;;8.13;100.00;102558.41;5046338;28;20105;-78
2024/03/21 08:30:30;;;;;;;3.75;1.40;;;;;;;8.12;100.00;102561.91;5061071;28;20458;-77
2024/03/21 08:32:55;;;;;;;4.32;1.42;;;;;;;8.19;100.00;102571.44;5062518;28;20323;-77
2024/03/21 08:35:21;;;;;;;3.80;1.40;;;;;;;8.14;100.00;102575.81;5043486;28;20041;-78
2024/03/21 08:37:46;;;;;;;5.97;1.42;;;;;;;8.07;100.00;102569.72;5046860;28;20086;-78
2024/03/21 08:40:13;;;;;;;5.38;1.27;;;;;;;8.06;100.00;102568.00;5047829;28;20102;-78
2024/03/21 08:42:39;;;;;;;4.78;1.52;;;;;;;8.02;100.00;102574.06;5046037;28;20037;-78
2024/03/21 08:45:06;;;;;;;7.20;1.70;;;;;;;8.05;100.00;102568.88;5045933;28;20037;-78
2024/03/21 08:47:32;;;;;;;6.13;1.52;;;;;;;8.06;100.00;102558.44;5045152;28;20037;-78
2024/03/21 08:49:57;;;;;;;3.13;1.60;;;;;;;8.07;100.00;102560.16;5042993;28;20041;-78
2024/03/21 08:52:23;;;;;;;7.38;1.42;;;;;;;8.11;100.00;102562.75;5037401;28;20254;-78
2024/03/21 08:54:48;;;;;;;6.50;2.15;;;;;;;8.08;100.00;102567.13;5045627;28;20147;-78
2024/03/21 08:57:14;;;;;;;5.88;1.50;;;;;;;8.13;100.00;102572.34;5042430;28;20813;-78
2024/03/21 08:59:39;;;;;;;5.68;1.73;;;;;;;8.16;100.00;102568.84;5048796;28;20037;-78
2024/03/21 09:02:06;;;;;;;12.65;2.17;;;;;;;8.17;100.00;102558.41;5045221;28;20041;-78
2024/03/21 09:04:31;;;;;;;5.85;1.80;;;;;;;8.21;100.00;102554.03;5043935;28;20370;-78
2024/03/21 09:06:56;;;;;;;6.25;2.17;;;;;;;8.23;100.00;102560.97;5041084;28;20130;-78
2024/03/21 09:09:22;;;;;;;9.02;2.08;;;;;;;8.24;100.00;102574.88;5046347;28;20040;-78
2024/03/21 09:11:47;;;;;;;5.03;1.70;;;;;;;8.25;100.00;102574.88;5041801;28;20336;-78
2024/03/21 09:14:13;;;;;;;7.32;2.10;;;;;;;8.25;100.00;102580.09;5047891;28;20036;-78
2024/03/21 09:16:38;;;;;;;4.00;1.20;;;;;;;8.25;100.00;102582.72;5046053;28;20036;-78
2024/03/21 09:19:03;;;;;;;10.60;1.88;;;;;;;8.23;100.00;102578.38;5048263;28;20025;-78
2024/03/21 09:21:29;;;;;;;3.83;1.67;;;;;;;8.18;100.00;102583.59;5046279;28;20036;-78
2024/03/21 09:23:54;;;;;;;3.15;1.50;;;;;;;8.16;100.00;102580.13;5045595;28;20108;-78
2024/03/21 09:26:19;;;;;;;4.55;1.38;;;;;;;8.28;100.00;102587.06;5045202;28;20040;-78
2024/03/21 09:28:45;;;;;;;5.28;1.85;;;;;;;8.23;100.00;102592.28;5047636;28;20057;-78
2024/03/21 09:31:10;;;;;;;2.45;1.30;;;;;;;8.33;100.00;102597.47;5046096;28;20147;-78
2024/03/21 09:33:36;;;;;;;7.68;1.52;;;;;;;8.18;100.00;102601.88;5045819;28;20126;-78
2024/03/21 09:36:05;;;;;;;7.60;1.35;;;;;;;8.23;100.00;102602.72;5042458;28;20037;-78
2024/03/21 09:38:30;;;;;;;3.30;1.33;;;;;;;8.31;100.00;102612.28;5047020;28;20421;-77
2024/03/21 09:40:56;;;;;;;3.63;1.10;;;;;;;8.40;100.00;102614.88;5047887;28;20123;-78
2024/03/21 09:43:22;;;;;;;5.05;1.70;;;;;;;8.40;100.00;102604.44;5045991;28;20053;-78
2024/03/21 09:45:51;;;;;;;1.23;1.10;;;;;;;8.31;100.00;102612.28;5049279;28;20254;-78
2024/03/21 09:48:17;;;;;;;2.30;1.50;;;;;;;8.37;100.00;102623.59;5045224;28;20043;-78
2024/03/21 09:50:46;;;;;;;3.00;1.25;;;;;;;8.43;100.00;102625.34;5046320;28;20036;-76
2024/03/21 09:53:15;;;;;;;2.20;1.20;;;;;;;8.42;100.00;102626.22;5044860;28;20041;-75
2024/03/21 09:55:42;;;;;;;2.67;1.05;;;;;;;8.48;100.00;102628.81;5047639;28;20077;-78
2024/03/21 09:58:15;;;;;;;4.20;1.25;;;;;;;8.54;100.00;102634.00;5046882;28;20252;-78
2024/03/21 10:00:42;;;;;;;3.33;1.13;;;;;;;8.50;100.00;102634.91;5047896;28;20273;-76
2024/03/21 10:03:14;;;;;;;2.70;1.10;;;;;;;8.55;100.00;102640.09;5049611;28;20045;-75
2024/03/21 10:05:48;;;;;;;3.83;1.20;;;;;;;8.47;100.00;102647.97;5045095;28;20563;-76
2024/03/21 10:08:16;;;;;;;3.85;1.55;;;;;;;8.51;100.00;102661.88;5043868;28;20080;-76
2024/03/21 10:10:45;;;;;;;8.18;1.75;;;;;;;8.55;100.00;102663.59;5045045;28;20328;-76
2024/03/21 10:13:10;;;;;;;4.28;1.67;;;;;;;8.58;100.00;102671.44;5043895;28;20028;-76
2024/03/21 10:15:39;;;;;;;5.82;1.70;;;;;;;8.47;100.00;102667.97;5047515;28;20029;-76
2024/03/21 10:18:04;;;;;;;5.20;1.63;;;;;;;8.48;100.00;102669.69;5048647;28;20051;-75
2024/03/21 10:20:30;;;;;;;9.48;1.92;;;;;;;8.57;100.00;102662.72;5049425;28;20917;-78
2024/03/21 10:22:56;;;;;;;2.88;1.35;;;;;;;8.64;100.00;102661.84;5046292;28;20285;-76
2024/03/21 10:25:22;;;;;;;8.30;1.65;;;;;;;8.68;100.00;102665.31;5052353;28;20047;-76
2024/03/21 10:27:47;;;;;;;3.88;1.77;;;;;;;8.72;100.00;102661.81;5048687;28;20096;-78
2024/03/21 10:30:23;;;;;;;4.45;1.48;;;;;;;8.56;100.00;102654.91;5044432;28;20319;-76
2024/03/21 10:32:49;;;;;;;2.33;1.13;;;;;;;8.60;100.00;102646.16;5043232;28;20044;-76
2024/03/21 10:35:18;;;;;;;8.23;1.40;;;;;;;8.61;100.00;102648.78;5043533;28;20079;-76
2024/03/21 10:37:43;;;;;;;;;;;;;;;8.63;100.00;102652.25;5045267;28;20290;-76
2024/03/21 10:40:12;;;;;;;4.38;1.60;;;;;;;8.60;100.00;102646.16;5047706;28;19928;-76
2024/03/21 10:42:42;;;;;;;4.50;1.30;;;;;;;8.63;100.00;102646.16;5044093;28;20040;-78
2024/03/21 10:45:12;;;;;;;5.07;1.38;;;;;;;8.65;100.00;102636.56;5043873;28;20193;-76
2024/03/21 10:47:46;;;;;;;1.40;1.20;;;;;;;8.71;100.00;102640.91;5043028;28;20033;-78
2024/03/21 10:50:22;;;;;;;1.65;1.40;;;;;;;8.77;100.00;102643.50;5047441;28;20262;-78
2024/03/21 10:52:52;;;;;;;4.05;1.40;;;;;;;8.79;100.00;102649.59;5049071;28;20215;-78
2024/03/21 10:55:19;;;;;;;11.35;1.65;;;;;;;8.73;100.00;102636.53;5045231;28;20066;-78
2024/03/21 10:57:59;;;;;;;4.85;1.80;;;;;;;8.70;100.00;102629.59;5042135;28;20080;-78
2024/03/21 11:00:24;;;;;;;4.60;2.05;;;;;;;8.71;100.00;102639.16;5048357;28;20060;-78
2024/03/21 11:02:52;;;;;;;4.40;1.58;;;;;;;8.67;100.00;102641.81;5044662;28;20266;-78
2024/03/21 11:05:22;;;;;;;3.22;1.80;;;;;;;8.69;100.00;102642.66;5048369;28;20041;-78
2024/03/21 11:07:48;;;;;;;4.22;1.45;;;;;;;8.77;100.00;102644.38;5043507;28;20832;-78
2024/03/21 11:10:21;;;;;;;2.75;1.40;;;;;;;8.88;100.00;102649.56;5049641;28;20031;-78
2024/03/21 11:12:47;;;;;;;2.88;1.20;;;;;;;8.97;100.00;102644.28;5042466;28;20945;-78
2024/03/21 11:15:13;;;;;;;2.90;1.40;;;;;;;8.99;100.00;102637.28;5044235;28;20025;-78
2024/03/21 11:17:39;;;;;;;3.17;1.92;;;;;;;8.85;100.00;102654.78;5042423;28;20083;-77
2024/03/21 11:20:09;;;;;;;7.40;1.50;;;;;;;8.90;100.00;102667.84;5043018;28;20036;-77